createdAt,value
2018-04-09T00:07:31.716Z,13
2018-04-09T00:17:31.621Z,13
2018-04-09T00:27:31.704Z,12
2018-04-09T00:37:31.692Z,14
2018-04-09T00:47:31.746Z,14
2018-04-09T00:57:31.747Z,13
2018-04-09T01:07:31.636Z,14
2018-04-09T01:17:31.722Z,13
2018-04-09T01:27:31.689Z,14
2018-04-09T01:37:31.592Z,14
2018-04-09T01:47:31.747Z,15
2018-04-09T01:57:31.619Z,14
2018-04-09T02:07:31.698Z,16
2018-04-09T02:17:31.758Z,15
2018-04-09T02:27:31.738Z,16
2018-04-09T02:37:31.720Z,16
2018-04-09T02:47:31.661Z,15
2018-04-09T02:57:31.636Z,16
2018-04-09T03:07:32.170Z,17
2018-04-09T03:17:31.610Z,18
2018-04-09T03:27:31.716Z,16
2018-04-09T03:37:31.646Z,17
2018-04-09T03:47:31.749Z,16
2018-04-09T03:57:31.742Z,18
2018-04-09T04:07:31.779Z,18
2018-04-09T04:17:31.690Z,18
2018-04-09T04:27:31.828Z,18
2018-04-09T04:37:31.751Z,16
2018-04-09T04:47:31.809Z,18
2018-04-09T04:57:31.825Z,20
2018-04-09T05:07:31.836Z,18
2018-04-09T05:17:31.818Z,18
2018-04-09T05:27:31.901Z,20
2018-04-09T05:37:31.861Z,25
2018-04-09T05:47:31.772Z,26
2018-04-09T05:57:31.811Z,28
2018-04-09T06:07:31.805Z,32
2018-04-09T06:17:31.920Z,34
2018-04-09T06:27:31.828Z,37
2018-04-09T06:37:31.972Z,35
2018-04-09T06:47:31.875Z,37
2018-04-09T06:57:31.899Z,38
2018-04-09T07:07:32.001Z,35
2018-04-09T07:17:32.043Z,36
2018-04-09T07:27:31.946Z,37
2018-04-09T07:37:32.007Z,40
2018-04-09T07:47:31.914Z,39
2018-04-09T07:57:32.042Z,37
2018-04-09T08:07:31.943Z,39
2018-04-09T08:17:31.897Z,39
2018-04-09T08:27:32.004Z,40
2018-04-09T08:37:32.052Z,40
2018-04-09T08:47:32.083Z,43
2018-04-09T08:57:32.151Z,42
2018-04-09T09:07:34.523Z,44
2018-04-09T09:17:58.381Z,47
2018-04-09T09:27:32.404Z,44
2018-04-09T09:37:32.165Z,45
2018-04-09T09:47:32.110Z,44
2018-04-09T09:57:32.773Z,47
2018-04-09T10:07:32.892Z,40
2018-04-09T10:17:32.072Z,41
2018-04-09T10:27:33.511Z,41
2018-04-09T10:37:33.606Z,42
2018-04-09T10:47:32.290Z,44
2018-04-09T10:57:32.312Z,44
2018-04-09T11:07:33.252Z,43
2018-04-09T11:17:32.014Z,43
2018-04-09T11:27:32.134Z,43
2018-04-09T11:37:32.381Z,43
2018-04-09T11:47:35.959Z,43
2018-04-09T11:57:32.136Z,45
2018-04-09T12:07:32.478Z,43
2018-04-09T12:17:32.041Z,45
2018-04-09T12:27:32.016Z,42
2018-04-09T12:37:32.081Z,44
2018-04-09T12:47:32.058Z,46
2018-04-09T12:57:32.129Z,45
2018-04-09T13:07:32.330Z,44
2018-04-09T13:17:32.089Z,43
2018-04-09T13:27:32.143Z,42
2018-04-09T13:37:32.089Z,43
2018-04-09T13:47:32.148Z,41
2018-04-09T13:57:32.025Z,41
2018-04-09T14:07:32.097Z,39
2018-04-09T14:17:32.274Z,39
2018-04-09T14:27:31.994Z,36
2018-04-09T14:37:32.320Z,36
2018-04-09T14:47:32.011Z,38
2018-04-09T14:57:32.181Z,37
2018-04-09T15:07:32.163Z,37
2018-04-09T15:17:32.118Z,38
2018-04-09T15:27:32.223Z,38
2018-04-09T15:37:32.177Z,40
2018-04-09T15:47:32.146Z,41
2018-04-09T15:57:32.353Z,43
2018-04-09T16:07:32.282Z,43
2018-04-09T16:17:32.650Z,41
2018-04-09T16:27:32.600Z,40
2018-04-09T16:37:32.693Z,41
2018-04-09T16:47:32.263Z,41
2018-04-09T16:57:32.378Z,38
2018-04-09T17:07:32.222Z,42
2018-04-09T17:17:32.136Z,37
2018-04-09T17:29:41.049Z,39
2018-04-09T17:37:32.160Z,38
2018-04-09T17:47:32.114Z,36
2018-04-09T17:57:32.096Z,37
2018-04-09T18:07:32.357Z,35
2018-04-09T18:17:32.103Z,35
2018-04-09T18:27:32.141Z,35
2018-04-09T18:37:32.270Z,36
2018-04-09T18:47:32.143Z,36
2018-04-09T18:57:32.195Z,36
2018-04-09T19:07:32.151Z,34
2018-04-09T19:17:32.112Z,34
2018-04-09T19:27:32.206Z,30
2018-04-09T19:37:33.872Z,29
2018-04-09T19:47:32.848Z,27
2018-04-09T19:57:33.887Z,23
2018-04-09T20:07:33.335Z,21
2018-04-09T20:17:39.067Z,23
2018-04-09T20:27:33.368Z,19
2018-04-09T20:37:33.224Z,19
2018-04-09T20:47:34.768Z,19
2018-04-09T20:57:32.327Z,20
2018-04-09T21:07:32.398Z,19
2018-04-09T21:17:34.542Z,17
2018-04-09T21:27:40.856Z,21
2018-04-09T21:37:48.559Z,22
2018-04-09T21:47:32.356Z,21
2018-04-09T21:57:32.516Z,21
2018-04-09T22:07:32.448Z,21
2018-04-09T22:17:32.453Z,24
2018-04-09T22:27:32.608Z,21
2018-04-09T22:37:33.188Z,21
2018-04-09T22:47:32.662Z,21
2018-04-09T22:57:32.640Z,23
2018-04-09T23:07:47.439Z,23
2018-04-09T23:17:50.289Z,23
2018-04-09T23:27:32.341Z,22
2018-04-09T23:37:32.129Z,23
2018-04-09T23:47:32.120Z,23
2018-04-09T23:57:32.111Z,23
